sensor_id;sensor_type;location;lat;lon;timestamp;P1;durP1;ratioP1;P2;durP2;ratioP2
8622;SDS011;4349;47.552;8.904;2024-03-17T00:00:19;2.17;;;2.00;;
8622;SDS011;4349;47.552;8.904;2024-03-17T00:02:46;2.00;;;1.90;;
8622;SDS011;4349;47.552;8.904;2024-03-17T00:05:14;2.00;;;1.90;;
8622;SDS011;4349;47.552;8.904;2024-03-17T00:07:40;2.17;;;2.07;;
8622;SDS011;4349;47.552;8.904;2024-03-17T00:10:07;2.37;;;2.17;;
8622;SDS011;4349;47.552;8.904;2024-03-17T00:12:33;2.20;;;2.10;;
8622;SDS011;4349;47.552;8.904;2024-03-17T00:15:00;2.20;;;2.10;;
8622;SDS011;4349;47.552;8.904;2024-03-17T00:17:26;3.27;;;2.63;;
8622;SDS011;4349;47.552;8.904;2024-03-17T00:19:52;2.20;;;2.10;;
8622;SDS011;4349;47.552;8.904;2024-03-17T00:22:19;2.47;;;2.33;;
8622;SDS011;4349;47.552;8.904;2024-03-17T00:24:46;2.53;;;2.10;;
8622;SDS011;4349;47.552;8.904;2024-03-17T00:27:12;2.20;;;2.10;;
8622;SDS011;4349;47.552;8.904;2024-03-17T00:29:39;2.07;;;2.03;;
8622;SDS011;4349;47.552;8.904;2024-03-17T00:32:05;2.40;;;2.30;;
8622;SDS011;4349;47.552;8.904;2024-03-17T00:34:32;2.40;;;2.30;;
8622;SDS011;4349;47.552;8.904;2024-03-17T00:36:57;3.13;;;2.60;;
8622;SDS011;4349;47.552;8.904;2024-03-17T00:39:26;2.63;;;2.53;;
8622;SDS011;4349;47.552;8.904;2024-03-17T00:41:52;3.13;;;2.93;;
8622;SDS011;4349;47.552;8.904;2024-03-17T00:44:19;3.20;;;2.90;;
8622;SDS011;4349;47.552;8.904;2024-03-17T00:46:45;3.40;;;3.17;;
8622;SDS011;4349;47.552;8.904;2024-03-17T00:49:12;3.23;;;2.97;;
8622;SDS011;4349;47.552;8.904;2024-03-17T00:51:37;3.40;;;3.20;;
8622;SDS011;4349;47.552;8.904;2024-03-17T00:54:04;3.30;;;3.10;;
8622;SDS011;4349;47.552;8.904;2024-03-17T00:56:31;4.23;;;3.30;;
8622;SDS011;4349;47.552;8.904;2024-03-17T00:58:58;3.60;;;3.40;;
8622;SDS011;4349;47.552;8.904;2024-03-17T01:01:23;3.47;;;3.27;;
8622;SDS011;4349;47.552;8.904;2024-03-17T01:03:51;3.23;;;2.90;;
8622;SDS011;4349;47.552;8.904;2024-03-17T01:06:16;4.23;;;2.80;;
8622;SDS011;4349;47.552;8.904;2024-03-17T01:08:43;3.00;;;2.90;;
8622;SDS011;4349;47.552;8.904;2024-03-17T01:11:13;3.17;;;2.97;;
8622;SDS011;4349;47.552;8.904;2024-03-17T01:13:41;2.70;;;2.50;;
8622;SDS011;4349;47.552;8.904;2024-03-17T01:16:07;2.57;;;2.47;;
8622;SDS011;4349;47.552;8.904;2024-03-17T01:18:33;2.53;;;2.40;;
8622;SDS011;4349;47.552;8.904;2024-03-17T01:21:00;2.70;;;2.50;;
8622;SDS011;4349;47.552;8.904;2024-03-17T01:23:26;3.00;;;2.80;;
8622;SDS011;4349;47.552;8.904;2024-03-17T01:25:53;2.70;;;2.53;;
8622;SDS011;4349;47.552;8.904;2024-03-17T01:28:20;2.53;;;2.43;;
8622;SDS011;4349;47.552;8.904;2024-03-17T01:30:47;2.37;;;2.20;;
8622;SDS011;4349;47.552;8.904;2024-03-17T01:33:14;2.50;;;2.30;;
8622;SDS011;4349;47.552;8.904;2024-03-17T01:35:39;2.30;;;2.20;;
8622;SDS011;4349;47.552;8.904;2024-03-17T01:38:06;2.20;;;2.00;;
8622;SDS011;4349;47.552;8.904;2024-03-17T01:40:32;2.40;;;2.30;;
8622;SDS011;4349;47.552;8.904;2024-03-17T01:42:58;2.43;;;2.23;;
8622;SDS011;4349;47.552;8.904;2024-03-17T01:45:25;1.90;;;1.90;;
8622;SDS011;4349;47.552;8.904;2024-03-17T01:47:54;1.80;;;1.70;;
8622;SDS011;4349;47.552;8.904;2024-03-17T01:50:23;2.67;;;2.47;;
8622;SDS011;4349;47.552;8.904;2024-03-17T01:52:51;2.93;;;2.73;;
8622;SDS011;4349;47.552;8.904;2024-03-17T01:55:17;3.87;;;3.00;;
8622;SDS011;4349;47.552;8.904;2024-03-17T01:57:44;2.40;;;2.30;;
8622;SDS011;4349;47.552;8.904;2024-03-17T02:00:10;2.37;;;2.27;;
8622;SDS011;4349;47.552;8.904;2024-03-17T02:02:37;2.30;;;2.30;;
8622;SDS011;4349;47.552;8.904;2024-03-17T02:05:06;2.93;;;2.73;;
8622;SDS011;4349;47.552;8.904;2024-03-17T02:07:32;2.50;;;2.40;;
8622;SDS011;4349;47.552;8.904;2024-03-17T02:09:58;3.03;;;2.67;;
8622;SDS011;4349;47.552;8.904;2024-03-17T02:12:24;2.70;;;2.50;;
8622;SDS011;4349;47.552;8.904;2024-03-17T02:14:51;2.50;;;2.30;;
8622;SDS011;4349;47.552;8.904;2024-03-17T02:17:16;3.80;;;2.23;;
8622;SDS011;4349;47.552;8.904;2024-03-17T02:19:43;2.43;;;2.23;;
8622;SDS011;4349;47.552;8.904;2024-03-17T02:22:12;2.30;;;2.20;;
8622;SDS011;4349;47.552;8.904;2024-03-17T02:24:38;2.30;;;2.20;;
8622;SDS011;4349;47.552;8.904;2024-03-17T02:27:05;2.23;;;2.13;;
8622;SDS011;4349;47.552;8.904;2024-03-17T02:29:30;2.57;;;2.47;;
8622;SDS011;4349;47.552;8.904;2024-03-17T02:31:57;2.67;;;2.53;;
8622;SDS011;4349;47.552;8.904;2024-03-17T02:34:23;2.23;;;2.13;;
8622;SDS011;4349;47.552;8.904;2024-03-17T02:36:49;2.50;;;2.40;;
8622;SDS011;4349;47.552;8.904;2024-03-17T02:39:16;2.57;;;2.43;;
8622;SDS011;4349;47.552;8.904;2024-03-17T02:42:01;2.20;;;2.10;;
8622;SDS011;4349;47.552;8.904;2024-03-17T02:44:28;2.03;;;1.97;;
8622;SDS011;4349;47.552;8.904;2024-03-17T02:46:54;2.50;;;2.40;;
8622;SDS011;4349;47.552;8.904;2024-03-17T02:49:21;2.30;;;2.20;;
8622;SDS011;4349;47.552;8.904;2024-03-17T02:51:48;1.87;;;1.87;;
8622;SDS011;4349;47.552;8.904;2024-03-17T02:54:15;2.33;;;2.20;;
8622;SDS011;4349;47.552;8.904;2024-03-17T02:56:43;2.40;;;2.30;;
8622;SDS011;4349;47.552;8.904;2024-03-17T02:59:10;2.00;;;1.90;;
8622;SDS011;4349;47.552;8.904;2024-03-17T03:01:36;2.00;;;2.00;;
8622;SDS011;4349;47.552;8.904;2024-03-17T03:04:03;2.27;;;2.17;;
8622;SDS011;4349;47.552;8.904;2024-03-17T03:06:31;2.17;;;2.00;;
8622;SDS011;4349;47.552;8.904;2024-03-17T03:08:58;2.63;;;2.50;;
8622;SDS011;4349;47.552;8.904;2024-03-17T03:11:24;2.20;;;2.10;;
8622;SDS011;4349;47.552;8.904;2024-03-17T03:13:52;2.23;;;2.13;;
8622;SDS011;4349;47.552;8.904;2024-03-17T03:16:19;2.50;;;2.30;;
8622;SDS011;4349;47.552;8.904;2024-03-17T03:18:46;2.40;;;2.30;;
8622;SDS011;4349;47.552;8.904;2024-03-17T03:21:12;2.30;;;2.20;;
8622;SDS011;4349;47.552;8.904;2024-03-17T03:23:39;2.67;;;2.47;;
8622;SDS011;4349;47.552;8.904;2024-03-17T03:26:06;2.50;;;2.40;;
8622;SDS011;4349;47.552;8.904;2024-03-17T03:28:35;2.30;;;2.20;;
8622;SDS011;4349;47.552;8.904;2024-03-17T03:31:03;3.20;;;2.57;;
8622;SDS011;4349;47.552;8.904;2024-03-17T03:33:30;2.77;;;2.67;;
8622;SDS011;4349;47.552;8.904;2024-03-17T03:35:56;2.80;;;2.60;;
8622;SDS011;4349;47.552;8.904;2024-03-17T03:38:22;2.63;;;2.53;;
8622;SDS011;4349;47.552;8.904;2024-03-17T03:40:49;2.17;;;2.07;;
8622;SDS011;4349;47.552;8.904;2024-03-17T03:43:17;2.33;;;2.23;;
8622;SDS011;4349;47.552;8.904;2024-03-17T03:45:45;2.50;;;2.30;;
8622;SDS011;4349;47.552;8.904;2024-03-17T03:48:13;2.20;;;2.10;;
8622;SDS011;4349;47.552;8.904;2024-03-17T03:50:40;2.60;;;2.50;;
8622;SDS011;4349;47.552;8.904;2024-03-17T03:53:07;2.40;;;2.23;;
8622;SDS011;4349;47.552;8.904;2024-03-17T03:55:33;2.33;;;2.23;;
8622;SDS011;4349;47.552;8.904;2024-03-17T03:58:00;2.97;;;2.67;;
8622;SDS011;4349;47.552;8.904;2024-03-17T04:00:28;2.73;;;2.63;;
8622;SDS011;4349;47.552;8.904;2024-03-17T04:02:58;2.30;;;2.20;;
8622;SDS011;4349;47.552;8.904;2024-03-17T04:05:26;3.10;;;2.90;;
8622;SDS011;4349;47.552;8.904;2024-03-17T04:07:53;3.17;;;3.00;;
8622;SDS011;4349;47.552;8.904;2024-03-17T04:10:20;3.13;;;2.40;;
8622;SDS011;4349;47.552;8.904;2024-03-17T04:12:47;2.60;;;2.50;;
8622;SDS011;4349;47.552;8.904;2024-03-17T04:15:14;2.60;;;2.40;;
8622;SDS011;4349;47.552;8.904;2024-03-17T04:17:40;2.40;;;2.30;;
8622;SDS011;4349;47.552;8.904;2024-03-17T04:20:08;2.13;;;2.10;;
8622;SDS011;4349;47.552;8.904;2024-03-17T04:22:40;2.83;;;2.73;;
8622;SDS011;4349;47.552;8.904;2024-03-17T04:25:08;2.57;;;2.47;;
8622;SDS011;4349;47.552;8.904;2024-03-17T04:27:35;2.60;;;2.50;;
8622;SDS011;4349;47.552;8.904;2024-03-17T04:30:02;2.43;;;2.33;;
8622;SDS011;4349;47.552;8.904;2024-03-17T04:32:31;2.50;;;2.40;;
8622;SDS011;4349;47.552;8.904;2024-03-17T04:34:57;2.80;;;2.70;;
8622;SDS011;4349;47.552;8.904;2024-03-17T04:37:24;2.70;;;2.50;;
8622;SDS011;4349;47.552;8.904;2024-03-17T04:39:52;2.90;;;2.70;;
8622;SDS011;4349;47.552;8.904;2024-03-17T04:42:22;2.60;;;2.50;;
8622;SDS011;4349;47.552;8.904;2024-03-17T04:44:49;2.13;;;2.10;;
8622;SDS011;4349;47.552;8.904;2024-03-17T04:47:16;2.50;;;2.40;;
8622;SDS011;4349;47.552;8.904;2024-03-17T04:49:43;2.40;;;2.30;;
8622;SDS011;4349;47.552;8.904;2024-03-17T04:52:10;2.70;;;2.50;;
8622;SDS011;4349;47.552;8.904;2024-03-17T04:54:37;2.70;;;2.53;;
8622;SDS011;4349;47.552;8.904;2024-03-17T04:57:08;2.40;;;2.30;;
8622;SDS011;4349;47.552;8.904;2024-03-17T04:59:35;2.30;;;2.20;;
8622;SDS011;4349;47.552;8.904;2024-03-17T05:02:01;2.10;;;2.10;;
8622;SDS011;4349;47.552;8.904;2024-03-17T05:04:28;2.60;;;2.40;;
8622;SDS011;4349;47.552;8.904;2024-03-17T05:06:55;2.53;;;2.43;;
8622;SDS011;4349;47.552;8.904;2024-03-17T05:09:22;2.40;;;2.30;;
8622;SDS011;4349;47.552;8.904;2024-03-17T05:11:49;2.57;;;2.20;;
8622;SDS011;4349;47.552;8.904;2024-03-17T05:14:18;2.47;;;2.27;;
8622;SDS011;4349;47.552;8.904;2024-03-17T05:16:47;2.03;;;2.03;;
8622;SDS011;4349;47.552;8.904;2024-03-17T05:19:14;2.30;;;2.17;;
8622;SDS011;4349;47.552;8.904;2024-03-17T05:21:42;2.13;;;2.13;;
8622;SDS011;4349;47.552;8.904;2024-03-17T05:24:10;2.30;;;2.17;;
8622;SDS011;4349;47.552;8.904;2024-03-17T05:26:36;5.17;;;2.53;;
8622;SDS011;4349;47.552;8.904;2024-03-17T05:29:03;2.20;;;2.10;;
8622;SDS011;4349;47.552;8.904;2024-03-17T05:31:31;2.20;;;2.10;;
8622;SDS011;4349;47.552;8.904;2024-03-17T05:33:58;2.17;;;2.07;;
8622;SDS011;4349;47.552;8.904;2024-03-17T05:36:24;1.93;;;1.83;;
8622;SDS011;4349;47.552;8.904;2024-03-17T05:38:51;2.10;;;1.90;;
8622;SDS011;4349;47.552;8.904;2024-03-17T05:41:18;2.00;;;1.90;;
8622;SDS011;4349;47.552;8.904;2024-03-17T05:43:44;2.00;;;1.90;;
8622;SDS011;4349;47.552;8.904;2024-03-17T05:46:14;2.00;;;1.90;;
8622;SDS011;4349;47.552;8.904;2024-03-17T05:48:42;1.90;;;1.80;;
8622;SDS011;4349;47.552;8.904;2024-03-17T05:51:09;1.77;;;1.63;;
8622;SDS011;4349;47.552;8.904;2024-03-17T05:53:36;1.80;;;1.70;;
8622;SDS011;4349;47.552;8.904;2024-03-17T05:56:04;1.70;;;1.60;;
8622;SDS011;4349;47.552;8.904;2024-03-17T05:58:33;2.00;;;1.90;;
8622;SDS011;4349;47.552;8.904;2024-03-17T06:01:01;1.60;;;1.50;;
8622;SDS011;4349;47.552;8.904;2024-03-17T06:03:28;1.53;;;1.53;;
8622;SDS011;4349;47.552;8.904;2024-03-17T06:05:58;1.77;;;1.67;;
8622;SDS011;4349;47.552;8.904;2024-03-17T06:08:24;1.50;;;1.50;;
8622;SDS011;4349;47.552;8.904;2024-03-17T06:10:51;1.60;;;1.60;;
8622;SDS011;4349;47.552;8.904;2024-03-17T06:13:18;1.60;;;1.60;;
8622;SDS011;4349;47.552;8.904;2024-03-17T06:15:44;1.50;;;1.50;;
8622;SDS011;4349;47.552;8.904;2024-03-17T06:18:12;2.00;;;1.90;;
8622;SDS011;4349;47.552;8.904;2024-03-17T06:20:40;2.23;;;2.03;;
8622;SDS011;4349;47.552;8.904;2024-03-17T06:23:10;2.40;;;2.20;;
8622;SDS011;4349;47.552;8.904;2024-03-17T06:25:38;3.07;;;2.00;;
8622;SDS011;4349;47.552;8.904;2024-03-17T06:28:05;2.27;;;2.17;;
8622;SDS011;4349;47.552;8.904;2024-03-17T06:30:32;1.90;;;1.80;;
8622;SDS011;4349;47.552;8.904;2024-03-17T06:33:01;2.50;;;2.40;;
8622;SDS011;4349;47.552;8.904;2024-03-17T06:35:28;2.40;;;2.30;;
8622;SDS011;4349;47.552;8.904;2024-03-17T06:37:58;2.00;;;2.00;;
8622;SDS011;4349;47.552;8.904;2024-03-17T06:40:26;1.90;;;1.90;;
8622;SDS011;4349;47.552;8.904;2024-03-17T06:42:53;2.40;;;2.27;;
8622;SDS011;4349;47.552;8.904;2024-03-17T06:45:20;1.90;;;1.90;;
8622;SDS011;4349;47.552;8.904;2024-03-17T06:47:46;2.07;;;1.90;;
8622;SDS011;4349;47.552;8.904;2024-03-17T06:50:13;1.93;;;1.93;;
8622;SDS011;4349;47.552;8.904;2024-03-17T06:52:40;2.80;;;1.80;;
8622;SDS011;4349;47.552;8.904;2024-03-17T06:55:07;2.30;;;1.70;;
8622;SDS011;4349;47.552;8.904;2024-03-17T06:57:35;1.80;;;1.80;;
8622;SDS011;4349;47.552;8.904;2024-03-17T07:00:01;2.00;;;1.90;;
8622;SDS011;4349;47.552;8.904;2024-03-17T07:02:30;1.90;;;1.90;;
8622;SDS011;4349;47.552;8.904;2024-03-17T07:04:57;1.83;;;1.80;;
8622;SDS011;4349;47.552;8.904;2024-03-17T07:07:26;1.97;;;1.87;;
8622;SDS011;4349;47.552;8.904;2024-03-17T07:09:53;1.77;;;1.73;;
8622;SDS011;4349;47.552;8.904;2024-03-17T07:12:19;1.50;;;1.50;;
8622;SDS011;4349;47.552;8.904;2024-03-17T07:14:50;3.40;;;3.20;;
8622;SDS011;4349;47.552;8.904;2024-03-17T07:17:17;3.17;;;3.07;;
8622;SDS011;4349;47.552;8.904;2024-03-17T07:19:44;3.50;;;3.30;;
8622;SDS011;4349;47.552;8.904;2024-03-17T07:22:11;4.00;;;3.70;;
8622;SDS011;4349;47.552;8.904;2024-03-17T07:24:37;3.60;;;3.40;;
8622;SDS011;4349;47.552;8.904;2024-03-17T07:27:04;4.03;;;3.73;;
8622;SDS011;4349;47.552;8.904;2024-03-17T07:29:34;4.33;;;3.93;;
8622;SDS011;4349;47.552;8.904;2024-03-17T07:32:02;4.07;;;3.70;;
8622;SDS011;4349;47.552;8.904;2024-03-17T07:34:30;4.87;;;4.47;;
8622;SDS011;4349;47.552;8.904;2024-03-17T07:36:56;5.50;;;5.00;;
8622;SDS011;4349;47.552;8.904;2024-03-17T07:39:28;5.77;;;5.27;;
8622;SDS011;4349;47.552;8.904;2024-03-17T07:41:57;8.63;;;7.50;;
8622;SDS011;4349;47.552;8.904;2024-03-17T07:44:24;25.90;;;20.70;;
8622;SDS011;4349;47.552;8.904;2024-03-17T07:46:51;19.23;;;15.50;;
8622;SDS011;4349;47.552;8.904;2024-03-17T07:49:19;7.93;;;7.23;;
8622;SDS011;4349;47.552;8.904;2024-03-17T07:51:46;7.10;;;6.30;;
8622;SDS011;4349;47.552;8.904;2024-03-17T07:54:13;5.70;;;5.20;;
8622;SDS011;4349;47.552;8.904;2024-03-17T07:56:40;6.23;;;5.63;;
8622;SDS011;4349;47.552;8.904;2024-03-17T07:59:06;4.90;;;4.50;;
8622;SDS011;4349;47.552;8.904;2024-03-17T08:01:37;4.67;;;4.37;;
8622;SDS011;4349;47.552;8.904;2024-03-17T08:04:04;4.93;;;4.53;;
8622;SDS011;4349;47.552;8.904;2024-03-17T08:06:32;5.10;;;4.70;;
8622;SDS011;4349;47.552;8.904;2024-03-17T08:08:58;5.13;;;4.73;;
8622;SDS011;4349;47.552;8.904;2024-03-17T08:11:25;5.50;;;5.00;;
8622;SDS011;4349;47.552;8.904;2024-03-17T08:13:52;4.50;;;4.20;;
8622;SDS011;4349;47.552;8.904;2024-03-17T08:16:19;4.60;;;4.30;;
8622;SDS011;4349;47.552;8.904;2024-03-17T08:18:46;4.10;;;3.90;;
8622;SDS011;4349;47.552;8.904;2024-03-17T08:21:13;3.40;;;3.20;;
8622;SDS011;4349;47.552;8.904;2024-03-17T08:23:41;3.67;;;3.47;;
8622;SDS011;4349;47.552;8.904;2024-03-17T08:26:08;3.73;;;3.53;;
8622;SDS011;4349;47.552;8.904;2024-03-17T08:28:35;3.67;;;3.37;;
8622;SDS011;4349;47.552;8.904;2024-03-17T08:31:02;4.43;;;4.07;;
8622;SDS011;4349;47.552;8.904;2024-03-17T08:33:29;3.80;;;3.60;;
8622;SDS011;4349;47.552;8.904;2024-03-17T08:35:56;4.20;;;4.00;;
8622;SDS011;4349;47.552;8.904;2024-03-17T08:38:23;3.83;;;3.60;;
8622;SDS011;4349;47.552;8.904;2024-03-17T08:40:51;3.70;;;3.50;;
8622;SDS011;4349;47.552;8.904;2024-03-17T08:43:18;4.63;;;4.33;;
8622;SDS011;4349;47.552;8.904;2024-03-17T08:45:45;4.60;;;4.17;;
8622;SDS011;4349;47.552;8.904;2024-03-17T08:48:20;4.10;;;3.80;;
8622;SDS011;4349;47.552;8.904;2024-03-17T08:50:49;3.80;;;3.60;;
8622;SDS011;4349;47.552;8.904;2024-03-17T08:53:16;4.07;;;3.73;;
8622;SDS011;4349;47.552;8.904;2024-03-17T08:55:42;4.60;;;4.20;;
8622;SDS011;4349;47.552;8.904;2024-03-17T08:58:10;3.60;;;3.27;;
8622;SDS011;4349;47.552;8.904;2024-03-17T09:00:37;4.63;;;4.00;;
8622;SDS011;4349;47.552;8.904;2024-03-17T09:03:05;4.83;;;4.50;;
8622;SDS011;4349;47.552;8.904;2024-03-17T09:05:32;4.20;;;4.00;;
8622;SDS011;4349;47.552;8.904;2024-03-17T09:07:59;3.83;;;3.63;;
8622;SDS011;4349;47.552;8.904;2024-03-17T09:10:26;4.60;;;4.20;;
8622;SDS011;4349;47.552;8.904;2024-03-17T09:12:52;3.63;;;3.33;;
8622;SDS011;4349;47.552;8.904;2024-03-17T09:15:21;3.77;;;3.60;;
8622;SDS011;4349;47.552;8.904;2024-03-17T09:17:47;3.60;;;3.30;;
8622;SDS011;4349;47.552;8.904;2024-03-17T09:20:14;3.67;;;3.40;;
8622;SDS011;4349;47.552;8.904;2024-03-17T09:22:42;4.03;;;3.73;;
8622;SDS011;4349;47.552;8.904;2024-03-17T09:25:09;3.67;;;3.47;;
8622;SDS011;4349;47.552;8.904;2024-03-17T09:27:36;3.67;;;3.47;;
8622;SDS011;4349;47.552;8.904;2024-03-17T09:30:03;3.40;;;3.20;;
8622;SDS011;4349;47.552;8.904;2024-03-17T09:32:35;3.37;;;3.17;;
8622;SDS011;4349;47.552;8.904;2024-03-17T09:35:02;3.53;;;3.33;;
8622;SDS011;4349;47.552;8.904;2024-03-17T09:37:29;3.07;;;2.97;;
8622;SDS011;4349;47.552;8.904;2024-03-17T09:39:56;3.87;;;3.60;;
8622;SDS011;4349;47.552;8.904;2024-03-17T09:42:23;3.70;;;3.50;;
8622;SDS011;4349;47.552;8.904;2024-03-17T09:44:50;3.70;;;3.50;;
8622;SDS011;4349;47.552;8.904;2024-03-17T09:47:20;3.80;;;3.60;;
8622;SDS011;4349;47.552;8.904;2024-03-17T09:49:48;3.67;;;3.40;;
8622;SDS011;4349;47.552;8.904;2024-03-17T09:52:18;3.50;;;3.20;;
8622;SDS011;4349;47.552;8.904;2024-03-17T09:54:45;2.90;;;2.80;;
8622;SDS011;4349;47.552;8.904;2024-03-17T09:57:14;3.77;;;3.10;;
8622;SDS011;4349;47.552;8.904;2024-03-17T09:59:42;3.43;;;3.20;;
8622;SDS011;4349;47.552;8.904;2024-03-17T10:02:09;4.53;;;3.80;;
8622;SDS011;4349;47.552;8.904;2024-03-17T10:04:41;3.00;;;2.63;;
8622;SDS011;4349;47.552;8.904;2024-03-17T10:07:09;3.43;;;3.13;;
8622;SDS011;4349;47.552;8.904;2024-03-17T10:09:36;2.50;;;2.33;;
8622;SDS011;4349;47.552;8.904;2024-03-17T10:12:04;2.40;;;2.20;;
8622;SDS011;4349;47.552;8.904;2024-03-17T10:14:32;2.80;;;2.10;;
8622;SDS011;4349;47.552;8.904;2024-03-17T10:16:59;2.40;;;1.90;;
8622;SDS011;4349;47.552;8.904;2024-03-17T10:19:25;2.07;;;1.97;;
8622;SDS011;4349;47.552;8.904;2024-03-17T10:21:57;2.10;;;1.97;;
8622;SDS011;4349;47.552;8.904;2024-03-17T10:24:27;2.23;;;2.00;;
8622;SDS011;4349;47.552;8.904;2024-03-17T10:26:54;2.53;;;1.80;;
8622;SDS011;4349;47.552;8.904;2024-03-17T10:29:22;3.07;;;2.00;;
8622;SDS011;4349;47.552;8.904;2024-03-17T10:31:50;2.23;;;1.80;;
8622;SDS011;4349;47.552;8.904;2024-03-17T10:34:17;2.47;;;1.73;;
8622;SDS011;4349;47.552;8.904;2024-03-17T10:36:44;2.30;;;2.10;;
8622;SDS011;4349;47.552;8.904;2024-03-17T10:39:18;2.50;;;2.30;;
8622;SDS011;4349;47.552;8.904;2024-03-17T10:41:57;4.73;;;2.53;;
8622;SDS011;4349;47.552;8.904;2024-03-17T10:44:25;3.73;;;1.80;;
8622;SDS011;4349;47.552;8.904;2024-03-17T10:46:52;2.60;;;2.10;;
8622;SDS011;4349;47.552;8.904;2024-03-17T10:49:21;3.57;;;2.10;;
8622;SDS011;4349;47.552;8.904;2024-03-17T10:51:49;2.53;;;1.90;;
8622;SDS011;4349;47.552;8.904;2024-03-17T10:54:20;2.83;;;2.07;;
8622;SDS011;4349;47.552;8.904;2024-03-17T10:56:48;3.33;;;2.03;;
8622;SDS011;4349;47.552;8.904;2024-03-17T10:59:16;2.47;;;1.93;;
8622;SDS011;4349;47.552;8.904;2024-03-17T11:01:44;2.10;;;1.90;;
8622;SDS011;4349;47.552;8.904;2024-03-17T11:04:13;2.17;;;2.00;;
8622;SDS011;4349;47.552;8.904;2024-03-17T11:06:40;3.50;;;2.13;;
8622;SDS011;4349;47.552;8.904;2024-03-17T11:09:07;2.30;;;2.00;;
8622;SDS011;4349;47.552;8.904;2024-03-17T11:11:39;2.43;;;2.23;;
8622;SDS011;4349;47.552;8.904;2024-03-17T11:14:17;2.00;;;1.90;;
8622;SDS011;4349;47.552;8.904;2024-03-17T11:16:45;2.27;;;2.10;;
8622;SDS011;4349;47.552;8.904;2024-03-17T11:19:14;2.10;;;2.00;;
8622;SDS011;4349;47.552;8.904;2024-03-17T11:21:41;2.87;;;2.30;;
8622;SDS011;4349;47.552;8.904;2024-03-17T11:24:17;4.07;;;3.47;;
8622;SDS011;4349;47.552;8.904;2024-03-17T11:26:45;2.30;;;2.10;;
8622;SDS011;4349;47.552;8.904;2024-03-17T11:29:26;1.90;;;1.80;;
8622;SDS011;4349;47.552;8.904;2024-03-17T11:31:52;2.10;;;2.00;;
8622;SDS011;4349;47.552;8.904;2024-03-17T11:34:33;2.40;;;2.30;;
8622;SDS011;4349;47.552;8.904;2024-03-17T11:37:01;2.53;;;2.27;;
8622;SDS011;4349;47.552;8.904;2024-03-17T11:39:47;3.30;;;2.57;;
8622;SDS011;4349;47.552;8.904;2024-03-17T11:42:16;3.00;;;2.80;;
8622;SDS011;4349;47.552;8.904;2024-03-17T11:44:44;2.70;;;2.50;;
8622;SDS011;4349;47.552;8.904;2024-03-17T11:47:20;3.80;;;2.73;;
8622;SDS011;4349;47.552;8.904;2024-03-17T11:49:45;2.70;;;2.50;;
8622;SDS011;4349;47.552;8.904;2024-03-17T11:52:13;4.40;;;4.10;;
8622;SDS011;4349;47.552;8.904;2024-03-17T11:54:39;2.90;;;2.70;;
8622;SDS011;4349;47.552;8.904;2024-03-17T11:57:06;2.70;;;2.50;;
8622;SDS011;4349;47.552;8.904;2024-03-17T11:59:32;2.20;;;2.00;;
8622;SDS011;4349;47.552;8.904;2024-03-17T12:02:01;2.33;;;1.83;;
8622;SDS011;4349;47.552;8.904;2024-03-17T12:04:27;2.30;;;2.20;;
8622;SDS011;4349;47.552;8.904;2024-03-17T12:06:54;2.50;;;2.40;;
8622;SDS011;4349;47.552;8.904;2024-03-17T12:09:21;2.57;;;2.40;;
8622;SDS011;4349;47.552;8.904;2024-03-17T12:11:48;2.57;;;2.47;;
8622;SDS011;4349;47.552;8.904;2024-03-17T12:14:18;2.57;;;2.37;;
8622;SDS011;4349;47.552;8.904;2024-03-17T12:16:49;3.27;;;2.93;;
8622;SDS011;4349;47.552;8.904;2024-03-17T12:19:16;2.77;;;2.67;;
8622;SDS011;4349;47.552;8.904;2024-03-17T12:21:44;3.10;;;2.90;;
8622;SDS011;4349;47.552;8.904;2024-03-17T12:24:11;3.33;;;3.03;;
8622;SDS011;4349;47.552;8.904;2024-03-17T12:26:40;4.67;;;4.30;;
8622;SDS011;4349;47.552;8.904;2024-03-17T12:29:18;4.07;;;3.77;;
8622;SDS011;4349;47.552;8.904;2024-03-17T12:31:47;3.33;;;3.03;;
8622;SDS011;4349;47.552;8.904;2024-03-17T12:34:12;2.93;;;2.73;;
8622;SDS011;4349;47.552;8.904;2024-03-17T12:36:41;2.80;;;2.70;;
8622;SDS011;4349;47.552;8.904;2024-03-17T12:39:10;3.20;;;3.00;;
8622;SDS011;4349;47.552;8.904;2024-03-17T12:41:37;3.80;;;3.50;;
8622;SDS011;4349;47.552;8.904;2024-03-17T12:44:03;5.23;;;4.77;;
8622;SDS011;4349;47.552;8.904;2024-03-17T12:46:30;3.73;;;3.53;;
8622;SDS011;4349;47.552;8.904;2024-03-17T12:48:58;3.60;;;3.37;;
8622;SDS011;4349;47.552;8.904;2024-03-17T12:51:25;3.10;;;2.90;;
8622;SDS011;4349;47.552;8.904;2024-03-17T12:53:52;2.90;;;2.70;;
8622;SDS011;4349;47.552;8.904;2024-03-17T12:56:38;3.00;;;2.77;;
8622;SDS011;4349;47.552;8.904;2024-03-17T12:59:22;5.60;;;5.20;;
8622;SDS011;4349;47.552;8.904;2024-03-17T13:02:06;3.60;;;3.40;;
8622;SDS011;4349;47.552;8.904;2024-03-17T13:04:36;3.13;;;2.93;;
8622;SDS011;4349;47.552;8.904;2024-03-17T13:07:09;3.10;;;2.90;;
8622;SDS011;4349;47.552;8.904;2024-03-17T13:09:37;3.20;;;3.00;;
8622;SDS011;4349;47.552;8.904;2024-03-17T13:12:11;3.07;;;2.87;;
8622;SDS011;4349;47.552;8.904;2024-03-17T13:14:38;3.40;;;3.10;;
8622;SDS011;4349;47.552;8.904;2024-03-17T13:17:06;3.10;;;2.90;;
8622;SDS011;4349;47.552;8.904;2024-03-17T13:19:33;3.53;;;3.23;;
8622;SDS011;4349;47.552;8.904;2024-03-17T13:22:03;2.87;;;2.77;;
8622;SDS011;4349;47.552;8.904;2024-03-17T13:24:29;2.93;;;2.73;;
8622;SDS011;4349;47.552;8.904;2024-03-17T13:26:57;2.90;;;2.70;;
8622;SDS011;4349;47.552;8.904;2024-03-17T13:29:29;3.30;;;3.10;;
8622;SDS011;4349;47.552;8.904;2024-03-17T13:31:55;3.23;;;3.03;;
8622;SDS011;4349;47.552;8.904;2024-03-17T13:34:22;3.13;;;2.90;;
8622;SDS011;4349;47.552;8.904;2024-03-17T13:36:52;3.17;;;2.87;;
8622;SDS011;4349;47.552;8.904;2024-03-17T13:39:19;3.57;;;3.27;;
8622;SDS011;4349;47.552;8.904;2024-03-17T13:41:46;3.83;;;3.53;;
8622;SDS011;4349;47.552;8.904;2024-03-17T13:44:15;3.53;;;3.23;;
8622;SDS011;4349;47.552;8.904;2024-03-17T13:46:42;3.47;;;3.17;;
8622;SDS011;4349;47.552;8.904;2024-03-17T13:49:09;3.40;;;3.20;;
8622;SDS011;4349;47.552;8.904;2024-03-17T13:51:36;3.10;;;2.90;;
8622;SDS011;4349;47.552;8.904;2024-03-17T13:54:02;4.10;;;2.87;;
8622;SDS011;4349;47.552;8.904;2024-03-17T13:56:29;2.57;;;2.37;;
8622;SDS011;4349;47.552;8.904;2024-03-17T13:58:56;3.33;;;3.00;;
8622;SDS011;4349;47.552;8.904;2024-03-17T14:01:24;3.27;;;3.07;;
8622;SDS011;4349;47.552;8.904;2024-03-17T14:03:50;2.33;;;2.13;;
8622;SDS011;4349;47.552;8.904;2024-03-17T14:06:18;2.50;;;2.30;;
8622;SDS011;4349;47.552;8.904;2024-03-17T14:08:45;2.43;;;2.20;;
8622;SDS011;4349;47.552;8.904;2024-03-17T14:11:12;2.60;;;1.60;;
8622;SDS011;4349;47.552;8.904;2024-03-17T14:13:38;2.50;;;1.77;;
8622;SDS011;4349;47.552;8.904;2024-03-17T14:16:05;1.80;;;1.50;;
8622;SDS011;4349;47.552;8.904;2024-03-17T14:18:33;1.53;;;1.43;;
8622;SDS011;4349;47.552;8.904;2024-03-17T14:21:00;1.60;;;1.50;;
8622;SDS011;4349;47.552;8.904;2024-03-17T14:23:27;2.70;;;1.50;;
8622;SDS011;4349;47.552;8.904;2024-03-17T14:25:55;1.80;;;1.60;;
8622;SDS011;4349;47.552;8.904;2024-03-17T14:28:22;1.57;;;1.40;;
8622;SDS011;4349;47.552;8.904;2024-03-17T14:30:48;2.37;;;2.17;;
8622;SDS011;4349;47.552;8.904;2024-03-17T14:33:15;1.77;;;1.50;;
8622;SDS011;4349;47.552;8.904;2024-03-17T14:35:43;2.90;;;1.40;;
8622;SDS011;4349;47.552;8.904;2024-03-17T14:38:11;1.50;;;1.40;;
8622;SDS011;4349;47.552;8.904;2024-03-17T14:40:40;1.73;;;1.10;;
8622;SDS011;4349;47.552;8.904;2024-03-17T14:43:06;2.20;;;2.00;;
8622;SDS011;4349;47.552;8.904;2024-03-17T14:45:32;1.33;;;1.20;;
8622;SDS011;4349;47.552;8.904;2024-03-17T14:48:00;1.50;;;1.50;;
8622;SDS011;4349;47.552;8.904;2024-03-17T14:50:28;2.00;;;1.70;;
8622;SDS011;4349;47.552;8.904;2024-03-17T14:52:56;1.30;;;1.30;;
8622;SDS011;4349;47.552;8.904;2024-03-17T14:55:22;1.17;;;1.17;;
8622;SDS011;4349;47.552;8.904;2024-03-17T14:57:49;1.80;;;1.40;;
8622;SDS011;4349;47.552;8.904;2024-03-17T15:00:16;3.10;;;1.40;;
8622;SDS011;4349;47.552;8.904;2024-03-17T15:02:43;1.93;;;1.20;;
8622;SDS011;4349;47.552;8.904;2024-03-17T15:05:11;2.17;;;1.50;;
8622;SDS011;4349;47.552;8.904;2024-03-17T15:07:37;1.50;;;1.40;;
8622;SDS011;4349;47.552;8.904;2024-03-17T15:10:06;2.50;;;1.60;;
8622;SDS011;4349;47.552;8.904;2024-03-17T15:12:33;1.10;;;1.10;;
8622;SDS011;4349;47.552;8.904;2024-03-17T15:15:00;1.20;;;1.20;;
8622;SDS011;4349;47.552;8.904;2024-03-17T15:17:26;1.87;;;1.40;;